createdAt,value
2022-08-07T00:01:43.798Z,83.70
2022-08-07T00:04:11.408Z,83.64
2022-08-07T00:06:51.251Z,84.48
2022-08-07T00:09:22.738Z,83.31
2022-08-07T00:11:55.271Z,81.16
2022-08-07T00:14:30.949Z,80.27
2022-08-07T00:17:02.504Z,80.45
2022-08-07T00:20:00.224Z,80.06
2022-08-07T00:22:24.620Z,79.35
2022-08-07T00:25:07.091Z,80.07
2022-08-07T00:27:53.125Z,80.04
2022-08-07T00:30:27.382Z,79.73
2022-08-07T00:32:59.321Z,79.00
2022-08-07T00:35:29.766Z,78.98
2022-08-07T00:37:58.848Z,79.14
2022-08-07T00:40:39.814Z,79.08
2022-08-07T00:43:12.823Z,78.98
2022-08-07T00:45:59.019Z,79.38
2022-08-07T00:48:32.226Z,79.27
2022-08-07T00:51:02.834Z,79.40
2022-08-07T00:53:39.316Z,79.37
2022-08-07T00:56:19.076Z,79.39
2022-08-07T00:58:49.693Z,79.42
2022-08-07T01:01:20.356Z,79.37
2022-08-07T01:03:56.054Z,79.30
2022-08-07T01:06:28.983Z,79.33
2022-08-07T01:09:01.049Z,79.52
2022-08-07T01:12:27.622Z,79.37
2022-08-07T01:14:21.157Z,79.24
2022-08-07T01:16:50.916Z,79.11
2022-08-07T01:19:26.278Z,79.11
2022-08-07T01:21:57.048Z,79.07
2022-08-07T01:24:30.693Z,78.85
2022-08-07T01:27:01.714Z,78.83
2022-08-07T01:29:34.246Z,78.98
2022-08-07T01:32:12.270Z,79.00
2022-08-07T01:34:47.389Z,78.66
2022-08-07T01:37:20.086Z,78.37
2022-08-07T01:39:51.149Z,78.05
2022-08-07T01:42:38.598Z,77.82
2022-08-07T01:45:17.809Z,77.63
2022-08-07T01:48:20.088Z,77.26
2022-08-07T01:50:40.327Z,77.25
2022-08-07T01:53:20.795Z,77.28
2022-08-07T01:55:57.461Z,77.52
2022-08-07T01:58:33.310Z,77.60
2022-08-07T02:01:25.335Z,77.19
2022-08-07T02:04:04.490Z,77.47
2022-08-07T02:06:36.761Z,77.90
2022-08-07T02:09:11.844Z,77.83
2022-08-07T02:12:17.833Z,77.81
2022-08-07T02:14:57.382Z,77.63
2022-08-07T02:17:34.926Z,77.77
2022-08-07T02:20:17.111Z,77.70
2022-08-07T02:22:54.809Z,77.74
2022-08-07T02:26:10.705Z,77.82
2022-08-07T02:28:24.853Z,77.79
2022-08-07T02:31:00.251Z,77.93
2022-08-07T02:34:01.822Z,78.00
2022-08-07T02:36:37.506Z,78.04
2022-08-07T02:39:42.553Z,78.03
2022-08-07T02:42:10.228Z,78.33
2022-08-07T02:44:48.316Z,78.34
2022-08-07T02:47:23.419Z,78.34
2022-08-07T02:49:59.623Z,78.28
2022-08-07T02:52:38.684Z,78.26
2022-08-07T02:55:27.760Z,78.13
2022-08-07T02:58:08.006Z,78.41
2022-08-07T03:00:41.707Z,78.56
2022-08-07T03:03:22.706Z,78.48
2022-08-07T03:05:54.527Z,78.33
2022-08-07T03:08:29.194Z,78.26
2022-08-07T03:11:01.498Z,78.51
2022-08-07T03:13:49.690Z,78.46
2022-08-07T03:16:22.900Z,78.37
2022-08-07T03:18:53.322Z,78.45
2022-08-07T03:21:24.894Z,78.30
2022-08-07T03:24:19.630Z,78.52
2022-08-07T03:26:58.236Z,78.39
2022-08-07T03:29:30.818Z,78.31
2022-08-07T03:32:06.368Z,78.79
2022-08-07T03:34:39.137Z,78.88
2022-08-07T03:37:12.377Z,78.94
2022-08-07T03:39:59.697Z,78.81
2022-08-07T03:42:30.018Z,78.89
2022-08-07T03:45:01.388Z,79.03
2022-08-07T03:47:47.615Z,79.40
2022-08-07T03:50:23.017Z,79.21
2022-08-07T03:52:53.661Z,79.04
2022-08-07T03:55:23.903Z,79.15
2022-08-07T03:59:04.745Z,79.11
2022-08-07T04:01:07.561Z,79.02
2022-08-07T04:03:53.273Z,79.01
2022-08-07T04:06:36.098Z,78.94
2022-08-07T04:09:05.797Z,79.19
2022-08-07T04:12:21.428Z,79.26
2022-08-07T04:14:39.018Z,79.30
2022-08-07T04:17:21.212Z,79.30
2022-08-07T04:19:54.477Z,79.28
2022-08-07T04:22:27.594Z,79.33
2022-08-07T04:25:02.278Z,79.42
2022-08-07T04:27:35.660Z,79.56
2022-08-07T04:30:21.389Z,79.51
2022-08-07T04:33:07.635Z,79.56
2022-08-07T04:35:38.941Z,79.75
2022-08-07T04:38:13.374Z,79.83
2022-08-07T04:40:56.456Z,79.94
2022-08-07T04:44:13.170Z,79.90
2022-08-07T04:46:34.297Z,79.69
2022-08-07T04:49:14.948Z,79.62
2022-08-07T04:51:57.598Z,79.74
2022-08-07T04:54:36.746Z,79.57
2022-08-07T04:58:29.160Z,79.52
2022-08-07T05:00:14.235Z,79.62
2022-08-07T05:02:56.967Z,79.54
2022-08-07T05:05:53.027Z,79.32
2022-08-07T05:08:45.428Z,79.21
2022-08-07T05:11:19.346Z,79.24
2022-08-07T05:14:55.213Z,79.14
2022-08-07T05:16:52.541Z,79.04
2022-08-07T05:19:25.789Z,78.88
2022-08-07T05:22:05.744Z,78.30
2022-08-07T05:24:40.979Z,78.25
2022-08-07T05:27:14.468Z,78.11
2022-08-07T05:30:03.622Z,77.57
2022-08-07T05:32:33.300Z,77.31
2022-08-07T05:35:03.974Z,77.29
2022-08-07T05:37:40.754Z,77.22
2022-08-07T05:40:17.634Z,77.05
2022-08-07T05:42:55.619Z,76.84
2022-08-07T05:45:46.782Z,76.82
2022-08-07T05:48:16.595Z,76.04
2022-08-07T05:50:47.483Z,75.54
2022-08-07T05:54:09.540Z,75.38
2022-08-07T05:56:12.396Z,74.76
2022-08-07T05:58:52.936Z,74.86
2022-08-07T06:01:27.640Z,73.73
2022-08-07T06:04:06.230Z,73.48
2022-08-07T06:06:46.047Z,72.75
2022-08-07T06:09:18.493Z,72.58
2022-08-07T06:11:50.106Z,72.51
2022-08-07T06:14:28.881Z,72.42
2022-08-07T06:17:07.357Z,72.12
2022-08-07T06:19:51.858Z,71.76
2022-08-07T06:22:35.612Z,71.64
2022-08-07T06:25:38.104Z,71.48
2022-08-07T06:28:08.458Z,71.35
2022-08-07T06:30:42.726Z,70.59
2022-08-07T06:33:19.220Z,70.10
2022-08-07T06:36:06.372Z,69.88
2022-08-07T06:38:58.580Z,69.30
2022-08-07T06:42:01.804Z,69.09
2022-08-07T06:44:44.778Z,68.35
2022-08-07T06:47:21.050Z,68.13
2022-08-07T06:49:58.439Z,68.31
2022-08-07T06:52:37.619Z,68.64
2022-08-07T06:55:34.199Z,68.79
2022-08-07T06:58:10.657Z,68.91
2022-08-07T07:00:57.285Z,67.95
2022-08-07T07:03:47.632Z,68.28
2022-08-07T07:06:15.178Z,68.27
2022-08-07T07:08:56.718Z,67.64
2022-08-07T07:12:08.440Z,66.80
2022-08-07T07:14:17.774Z,66.50
2022-08-07T07:16:50.841Z,65.53
2022-08-07T07:19:55.851Z,66.11
2022-08-07T07:22:35.808Z,65.88
2022-08-07T07:26:30.813Z,65.72
2022-08-07T07:28:02.302Z,64.99
2022-08-07T07:30:39.775Z,65.32
2022-08-07T07:33:12.204Z,64.30
2022-08-07T07:36:05.667Z,64.91
2022-08-07T07:38:34.911Z,63.73
2022-08-07T07:41:09.212Z,65.50
2022-08-07T07:44:14.922Z,64.21
2022-08-07T07:46:38.065Z,63.41
2022-08-07T07:50:34.692Z,63.11
2022-08-07T07:52:16.110Z,63.31
2022-08-07T07:54:51.501Z,63.62
2022-08-07T07:57:52.330Z,63.07
2022-08-07T08:00:20.908Z,63.18
2022-08-07T08:03:07.926Z,62.98
2022-08-07T08:05:54.252Z,62.43
2022-08-07T08:08:36.252Z,61.92
2022-08-07T08:11:16.432Z,62.54
2022-08-07T08:13:55.028Z,61.85
2022-08-07T08:16:31.219Z,62.20
2022-08-07T08:19:09.693Z,61.51
2022-08-07T08:22:06.449Z,60.05
2022-08-07T08:25:04.690Z,61.15
2022-08-07T08:27:56.744Z,60.58
2022-08-07T08:30:32.008Z,60.92
2022-08-07T08:33:04.323Z,60.56
2022-08-07T08:35:39.495Z,60.77
2022-08-07T08:38:16.877Z,59.03
2022-08-07T08:40:50.257Z,61.30
2022-08-07T08:43:41.768Z,59.87
2022-08-07T08:46:16.035Z,59.25
2022-08-07T08:48:52.810Z,59.33
2022-08-07T08:51:49.797Z,59.16
2022-08-07T08:54:24.951Z,59.12
2022-08-07T08:56:55.079Z,59.81
2022-08-07T08:59:29.428Z,59.05
2022-08-07T09:02:11.771Z,58.06
2022-08-07T09:04:47.261Z,58.74
2022-08-07T09:07:27.228Z,57.40
2022-08-07T09:10:03.263Z,59.15
2022-08-07T09:12:54.099Z,56.13
2022-08-07T09:16:24.885Z,81.85
2022-08-07T09:18:42.015Z,85.80
2022-08-07T09:22:10.138Z,90.63
2022-08-07T09:24:56.052Z,90.87
2022-08-07T09:27:31.292Z,91.01
2022-08-07T09:30:09.344Z,92.75
2022-08-07T09:33:16.458Z,90.89
2022-08-07T09:36:04.083Z,91.37
2022-08-07T09:38:43.726Z,90.81
2022-08-07T09:41:43.363Z,92.18
2022-08-07T09:44:58.350Z,87.93
2022-08-07T09:47:57.730Z,87.25
2022-08-07T09:50:30.177Z,83.28
2022-08-07T09:53:02.481Z,84.41
2022-08-07T09:56:03.135Z,85.31
2022-08-07T09:58:58.893Z,84.35
2022-08-07T10:01:52.294Z,84.51
2022-08-07T10:05:00.658Z,83.18
2022-08-07T10:08:04.050Z,78.53
2022-08-07T10:14:00.337Z,79.56
2022-08-07T10:17:14.207Z,78.32
2022-08-07T10:20:00.030Z,79.75
2022-08-07T10:22:46.015Z,80.78
2022-08-07T10:25:32.822Z,80.84
2022-08-07T10:28:49.339Z,81.20
2022-08-07T10:31:38.717Z,76.76
2022-08-07T10:34:31.774Z,74.05
2022-08-07T10:37:12.585Z,71.39
2022-08-07T10:40:03.204Z,68.17
2022-08-07T10:42:41.345Z,69.49
2022-08-07T10:45:48.044Z,68.98
2022-08-07T10:48:34.960Z,70.40
2022-08-07T10:51:16.368Z,71.26
2022-08-07T10:54:16.260Z,71.10
2022-08-07T10:56:58.276Z,69.93
2022-08-07T10:59:37.233Z,69.99
2022-08-07T11:02:33.186Z,69.59
2022-08-07T11:05:49.121Z,70.98
2022-08-07T11:08:31.389Z,68.93
2022-08-07T11:11:06.147Z,69.69
2022-08-07T11:14:45.667Z,69.32
2022-08-07T11:16:30.947Z,67.04
2022-08-07T11:19:06.910Z,66.83
2022-08-07T11:21:46.245Z,67.49
2022-08-07T11:24:25.008Z,68.07
2022-08-07T11:27:00.360Z,69.88
2022-08-07T11:29:42.839Z,69.04
2022-08-07T11:32:25.228Z,66.53
2022-08-07T11:34:58.442Z,64.63
2022-08-07T11:37:58.019Z,66.73
2022-08-07T11:40:46.551Z,67.53
2022-08-07T11:43:29.747Z,66.08
2022-08-07T11:46:27.024Z,66.51
2022-08-07T11:49:50.856Z,66.40
2022-08-07T11:52:29.321Z,66.24
2022-08-07T11:56:15.565Z,64.69
2022-08-07T11:58:33.597Z,64.83
2022-08-07T12:01:25.605Z,65.27
2022-08-07T12:04:32.773Z,67.22
2022-08-07T12:07:10.099Z,66.24
2022-08-07T12:09:55.352Z,64.28
2022-08-07T12:12:28.989Z,67.49
2022-08-07T12:15:04.468Z,66.85
2022-08-07T12:17:59.726Z,66.99
2022-08-07T12:20:34.746Z,67.10
2022-08-07T12:24:04.903Z,66.02
2022-08-07T12:26:41.985Z,67.07
2022-08-07T12:29:38.072Z,69.32
2022-08-07T12:32:15.366Z,70.72
2022-08-07T12:34:49.373Z,68.80
2022-08-07T12:37:27.950Z,67.94
2022-08-07T12:40:36.422Z,67.87
2022-08-07T12:43:09.243Z,68.19
2022-08-07T12:45:50.286Z,69.37
2022-08-07T12:48:41.658Z,70.68
2022-08-07T12:51:21.299Z,67.46
2022-08-07T12:54:03.321Z,68.66
2022-08-07T12:56:51.399Z,68.25
2022-08-07T12:59:30.471Z,67.17
2022-08-07T13:02:49.450Z,66.18
2022-08-07T13:06:03.239Z,64.22
2022-08-07T13:08:30.920Z,65.47
2022-08-07T13:11:14.204Z,64.26
2022-08-07T13:13:57.501Z,64.57
2022-08-07T13:16:37.396Z,65.72
2022-08-07T13:19:34.984Z,67.69
2022-08-07T13:22:19.814Z,65.53
2022-08-07T13:25:02.450Z,65.08
2022-08-07T13:28:10.621Z,64.16
2022-08-07T13:30:41.051Z,64.40
2022-08-07T13:34:33.415Z,64.73
2022-08-07T13:36:17.731Z,63.12
2022-08-07T13:38:54.412Z,64.32
2022-08-07T13:41:41.521Z,67.17
2022-08-07T13:44:13.119Z,68.33
2022-08-07T13:46:49.463Z,64.32
2022-08-07T13:50:35.132Z,62.66
2022-08-07T13:52:22.799Z,63.62
2022-08-07T13:55:10.991Z,64.37
2022-08-07T13:58:02.051Z,64.72
2022-08-07T14:00:50.614Z,63.66
2022-08-07T14:03:29.543Z,64.30
2022-08-07T14:06:15.144Z,61.90
2022-08-07T14:08:53.619Z,63.59
2022-08-07T14:11:23.845Z,63.40
2022-08-07T14:13:58.683Z,60.93
2022-08-07T14:16:35.393Z,62.50
2022-08-07T14:20:41.049Z,63.11
2022-08-07T14:22:12.443Z,63.77
2022-08-07T14:24:46.765Z,61.68
2022-08-07T14:28:12.846Z,61.20
2022-08-07T14:30:13.070Z,62.60
2022-08-07T14:32:45.828Z,63.18
2022-08-07T14:35:42.920Z,64.34
2022-08-07T14:38:26.552Z,62.14
2022-08-07T14:41:04.084Z,63.24
2022-08-07T14:43:57.412Z,61.76
2022-08-07T14:46:31.010Z,62.13
2022-08-07T14:49:55.797Z,61.79
2022-08-07T14:52:04.479Z,61.07
2022-08-07T14:54:41.980Z,61.47
2022-08-07T15:00:07.005Z,59.12
2022-08-07T15:02:39.077Z,59.45
2022-08-07T15:05:20.520Z,58.62
2022-08-07T15:07:53.655Z,57.00
2022-08-07T15:10:26.313Z,58.35
2022-08-07T15:13:01.232Z,61.89
2022-08-07T15:15:39.543Z,57.87
2022-08-07T15:18:14.557Z,57.00
2022-08-07T15:21:03.730Z,57.67
2022-08-07T15:26:37.843Z,58.08
2022-08-07T15:32:04.845Z,58.64
2022-08-07T15:34:50.569Z,60.94
2022-08-07T15:37:27.619Z,60.41
2022-08-07T15:43:04.254Z,59.26
2022-08-07T15:45:56.275Z,59.96
2022-08-07T15:48:30.808Z,60.22
2022-08-07T15:51:09.905Z,60.22
2022-08-07T15:53:53.281Z,60.96
2022-08-07T15:56:33.321Z,60.60
2022-08-07T15:59:04.535Z,60.54
2022-08-07T16:01:39.774Z,60.73
2022-08-07T16:04:14.921Z,60.14
2022-08-07T16:06:51.476Z,60.26
2022-08-07T16:09:44.655Z,57.51
2022-08-07T16:12:39.004Z,59.38
2022-08-07T16:15:57.523Z,58.65
2022-08-07T16:18:43.423Z,58.50
2022-08-07T16:21:44.401Z,60.48
2022-08-07T16:24:34.464Z,59.74
2022-08-07T16:27:18.405Z,59.25
2022-08-07T16:30:31.198Z,59.97
2022-08-07T16:34:03.219Z,60.30
2022-08-07T16:36:18.249Z,59.10
2022-08-07T16:39:20.852Z,58.92
2022-08-07T16:42:28.887Z,60.44
2022-08-07T16:46:40.967Z,59.44
2022-08-07T16:49:03.964Z,59.37
2022-08-07T16:52:01.453Z,60.93
2022-08-07T16:54:38.523Z,58.68
2022-08-07T16:58:02.436Z,60.75
2022-08-07T17:00:32.324Z,62.59
2022-08-07T17:03:17.960Z,62.79
2022-08-07T17:06:19.466Z,62.86
2022-08-07T17:09:10.379Z,64.06
2022-08-07T17:12:04.016Z,67.46
2022-08-07T17:14:44.901Z,70.04
2022-08-07T17:17:46.036Z,69.49
2022-08-07T17:20:30.065Z,67.59
2022-08-07T17:23:08.785Z,68.24
2022-08-07T17:26:02.864Z,68.01
2022-08-07T17:28:38.431Z,67.62
2022-08-07T17:31:17.412Z,70.15
2022-08-07T17:34:32.591Z,71.60
2022-08-07T17:36:57.737Z,73.96
2022-08-07T17:39:58.943Z,74.63
2022-08-07T17:42:59.629Z,76.08
2022-08-07T17:45:35.234Z,77.25
2022-08-07T17:48:10.275Z,77.68
2022-08-07T17:50:54.225Z,78.35
2022-08-07T17:54:01.039Z,78.55
2022-08-07T17:56:28.673Z,78.22
2022-08-07T17:59:05.631Z,79.22
2022-08-07T18:01:48.578Z,79.97
2022-08-07T18:04:31.197Z,81.30
2022-08-07T18:07:22.593Z,82.29
2022-08-07T18:10:07.177Z,82.02
2022-08-07T18:12:53.975Z,82.50
2022-08-07T18:15:33.135Z,82.10
2022-08-07T18:18:45.569Z,82.95
2022-08-07T18:21:27.491Z,82.54
2022-08-07T18:24:08.936Z,83.47
2022-08-07T18:27:00.798Z,82.88
2022-08-07T18:30:07.919Z,83.29
2022-08-07T18:32:46.486Z,84.78
2022-08-07T18:35:21.763Z,84.50
2022-08-07T18:38:59.083Z,85.23
2022-08-07T18:41:10.002Z,85.84
2022-08-07T18:44:01.372Z,87.00
2022-08-07T18:46:48.289Z,86.94
2022-08-07T18:50:30.307Z,87.43
2022-08-07T18:52:53.988Z,87.22
2022-08-07T18:55:40.662Z,87.97
2022-08-07T18:58:24.416Z,87.72
2022-08-07T19:02:32.811Z,88.60
2022-08-07T19:04:13.926Z,88.13
2022-08-07T19:06:54.202Z,88.74
2022-08-07T19:09:55.426Z,89.37
2022-08-07T19:12:21.839Z,89.70
2022-08-07T19:16:03.489Z,90.02
2022-08-07T19:18:14.218Z,91.05
2022-08-07T19:21:08.960Z,91.87
2022-08-07T19:23:58.902Z,92.44
2022-08-07T19:27:23.610Z,93.37
2022-08-07T19:31:03.182Z,93.37
2022-08-07T19:32:27.733Z,93.91
2022-08-07T19:35:12.512Z,94.46
2022-08-07T19:37:56.374Z,94.69
2022-08-07T19:40:34.552Z,95.07
2022-08-07T19:43:11.022Z,95.38
2022-08-07T19:46:05.056Z,95.84
2022-08-07T19:48:42.199Z,96.13
2022-08-07T19:51:20.100Z,96.70
2022-08-07T19:54:33.748Z,96.65
2022-08-07T19:57:51.140Z,96.25
2022-08-07T19:59:46.819Z,96.78
2022-08-07T20:02:26.918Z,96.75
2022-08-07T20:04:56.333Z,97.10
2022-08-07T20:07:47.201Z,97.38
2022-08-07T20:10:38.074Z,97.29
2022-08-07T20:13:23.428Z,97.49
2022-08-07T20:15:55.370Z,97.33
2022-08-07T20:18:33.807Z,97.74
2022-08-07T20:21:20.845Z,97.22
2022-08-07T20:23:54.830Z,97.29
2022-08-07T20:26:38.532Z,95.84
2022-08-07T20:29:49.521Z,96.33
2022-08-07T20:32:11.322Z,96.40
2022-08-07T20:34:52.783Z,95.47
2022-08-07T20:37:24.352Z,95.23
2022-08-07T20:40:03.757Z,95.43
2022-08-07T20:42:34.656Z,94.20
2022-08-07T20:45:32.803Z,94.27
2022-08-07T20:47:59.028Z,92.50
2022-08-07T20:50:30.523Z,91.60
2022-08-07T20:52:59.691Z,92.98
2022-08-07T20:55:28.698Z,91.62
2022-08-07T20:58:08.903Z,90.96
2022-08-07T21:00:46.643Z,90.89
2022-08-07T21:03:18.898Z,90.13
2022-08-07T21:05:57.045Z,90.13
2022-08-07T21:08:37.312Z,87.72
2022-08-07T21:11:10.804Z,88.44
2022-08-07T21:14:16.804Z,89.95
2022-08-07T21:16:56.415Z,89.76
2022-08-07T21:19:32.301Z,88.82
2022-08-07T21:22:20.214Z,87.06
2022-08-07T21:25:12.310Z,87.06
2022-08-07T21:28:02.055Z,86.94
2022-08-07T21:30:41.825Z,87.15
2022-08-07T21:33:20.706Z,86.33
2022-08-07T21:36:05.611Z,85.86
2022-08-07T21:38:50.272Z,87.18
2022-08-07T21:41:25.490Z,87.18
2022-08-07T21:44:03.626Z,86.92
2022-08-07T21:46:41.503Z,87.43
2022-08-07T21:49:17.013Z,86.04
2022-08-07T21:51:59.160Z,87.88
2022-08-07T21:54:37.401Z,87.27
2022-08-07T21:57:31.325Z,86.00
2022-08-07T22:00:20.474Z,86.23
2022-08-07T22:03:00.214Z,86.16
2022-08-07T22:05:46.114Z,85.23
2022-08-07T22:08:20.173Z,85.38
2022-08-07T22:10:53.565Z,83.79
2022-08-07T22:13:23.883Z,82.76
2022-08-07T22:16:39.391Z,82.45
2022-08-07T22:19:01.412Z,82.02
2022-08-07T22:22:04.882Z,81.68
2022-08-07T22:24:36.990Z,81.10
2022-08-07T22:27:13.560Z,80.99
2022-08-07T22:29:50.326Z,80.16
2022-08-07T22:32:25.647Z,80.09
2022-08-07T22:34:55.917Z,80.43
2022-08-07T22:38:03.402Z,79.71
2022-08-07T22:40:30.865Z,79.68
2022-08-07T22:43:04.360Z,79.52
2022-08-07T22:46:21.709Z,79.49
2022-08-07T22:49:06.549Z,79.53
2022-08-07T22:52:02.602Z,79.74
2022-08-07T22:54:52.506Z,79.75
2022-08-07T22:57:51.274Z,79.97
2022-08-07T23:00:28.548Z,79.71
2022-08-07T23:03:18.355Z,79.82
2022-08-07T23:06:15.032Z,79.94
2022-08-07T23:10:04.207Z,80.02
2022-08-07T23:12:06.407Z,79.75
2022-08-07T23:14:44.383Z,79.66
2022-08-07T23:17:45.799Z,79.83
2022-08-07T23:20:40.587Z,80.06
2022-08-07T23:24:05.233Z,79.85
2022-08-07T23:26:54.794Z,79.95
2022-08-07T23:30:36.977Z,79.88
2022-08-07T23:34:34.700Z,79.99
2022-08-07T23:36:28.816Z,79.43
2022-08-07T23:39:08.718Z,79.43
2022-08-07T23:42:04.050Z,79.22
2022-08-07T23:45:00.595Z,78.94
2022-08-07T23:47:48.041Z,78.68
2022-08-07T23:50:36.961Z,78.48
2022-08-07T23:53:17.407Z,78.26
2022-08-07T23:55:55.758Z,77.85
2022-08-07T23:58:37.328Z,77.97
